Impacts TAF Board
For situational awareness. Not to be used for flight planning purposes.
IDs:

KOLS - Nogales Intl, AZ, US

Issued at 1725 UTC 02 Aug 2021
Updated at 2224 UTC 02 Aug 2021
Potential Impact None Slight Moderate High
Time2214Z 02/23Z 03/00Z 03/01Z 03/02Z 03/03Z 03/04Z 03/05Z 03/06Z 03/07Z 03/08Z 03/09Z 03/10Z 03/11Z>>
Type OBS PRVL PRVL PRVL PRVL PRVL PRVL PRVL PRVL PRVL PRVL PRVL PRVL PRVL
VIS 10 >6 >6 >6 >6 >6 >6 >6 >6 >6 >6 >6 >6 >6
CIG -- -- -- -- -- -- -- -- -- -- -- -- -- --
Cover CLR SCT SCT FEW FEW FEW FEW FEW FEW FEW FEW SKC SKC SKC
FltCat VFR VFR VFR VFR VFR VFR VFR VFR VFR VFR VFR VFR VFR VFR
WX -- VCTS VCTS VCSH VCSH VCSH VCSH VCSH VCSH VCSH VCSH -- -- --
WDir 180 30 30 100 100 100 100 100 100 100 100 VRB VRB VRB
WSpd 5 10 10 6 6 6 6 6 6 6 6 3 3 3
WGst -- 24 24 -- -- -- -- -- -- -- -- -- -- --
Raw TAF
KOLS 021725Z 0218/0318 VRB03KT P6SM FEW080
  FM022100 03010G24KT P6SM VCTS SCT080CB
  FM030100 10006KT P6SM VCSH FEW080
  FM030900 VRB03KT P6SM SKC


Raw METAR
KOLS 022214Z AUTO 18005KT 10SM CLR 33/21 A3012 RMK AO2 T03280206
KOLS 022154Z AUTO 31009G16KT 10SM VCTS CLR 34/19 A3012 RMK AO2 SLP124 T03390194
KOLS 022140Z AUTO 31008G15KT 10SM VCTS CLR 33/19 A3012 RMK AO2 T03330194
KOLS 022054Z AUTO VRB05G15KT 10SM CLR 33/20 A3014 RMK AO2 LTG DSNT S SLP131 T03330200 58019
KOLS 021954Z AUTO 32007G14KT 10SM CLR 32/21 A3017 RMK AO2 LTG DSNT SE SLP142 T03220211

METAR Board
Radar Display
Forecast Discussion
For situational awareness. Not to be used for flight planning purposes.